Time;durP1;ratioP1;P1;durP2;ratioP2;P2;SDS_P1;SDS_P2;PMS_P1;PMS_P2;Temp;Humidity;BMP_temperature;BMP_pressure;BME280_temperature;BME280_humidity;BME280_pressure;Samples;Min_cycle;Max_cycle;Signal;HPM_P1;HPM_P2
2022/03/04 00:01:21;;;;;;;;;;;;;;;6.98;38.52;100795.03;5000849;28;6784;-70
2022/03/04 00:03:47;;;;;;;;;;;;;;;6.97;38.22;100789.81;4997378;28;7178;-70
2022/03/04 00:06:13;;;;;;;;;;;;;;;6.94;38.35;100786.28;4997353;28;6823;-70
2022/03/04 00:08:39;;;;;;;;;;;;;;;6.90;38.56;100789.38;4999390;28;6787;-71
2022/03/04 00:11:05;;;;;;;;;;;;;;;6.88;38.26;100790.94;4981994;28;6938;-71
2022/03/04 00:13:32;;;;;;;;;;;;;;;6.86;38.80;100791.66;4981821;28;6856;-70
2022/03/04 00:15:58;;;;;;;;;;;;;;;6.82;38.91;100800.75;4975592;28;6908;-70
2022/03/04 00:18:24;;;;;;;;;;;;;;;6.79;38.17;100797.97;4997551;28;6889;-70
2022/03/04 00:20:51;;;;;;;;;;;;;;;6.77;38.46;100802.97;4995690;28;7188;-70
2022/03/04 00:23:18;;;;;;;;;;;;;;;6.76;39.04;100796.09;4980028;28;6788;-70
2022/03/04 00:25:45;;;;;;;;;;;;;;;6.74;38.73;100795.09;4978326;28;7284;-70
2022/03/04 00:28:10;;;;;;;;;;;;;;;6.73;39.00;100800.09;4978987;28;6812;-70
2022/03/04 00:30:36;;;;;;;;;;;;;;;6.70;38.63;100805.84;4997014;28;7133;-71
2022/03/04 00:33:02;;;;;;;;;;;;;;;6.69;38.87;100803.19;4976870;28;6962;-70
2022/03/04 00:35:28;;;;;;;;;;;;;;;6.66;38.97;100808.94;4995028;28;7868;-70
2022/03/04 00:37:53;;;;;;;;;;;;;;;6.64;38.82;100805.41;4959686;28;7446;-70
2022/03/04 00:40:21;;;;;;;;;;;;;;;6.61;39.07;100797.56;4982947;28;6775;-70
2022/03/04 00:42:47;;;;;;;;;;;;;;;6.60;38.78;100806.00;4998558;28;7416;-70
2022/03/04 00:45:13;;;;;;;;;;;;;;;6.58;39.14;100799.91;4995995;28;7145;-70
2022/03/04 00:47:38;;;;;;;;;;;;;;;6.57;39.56;100804.09;4984940;28;7425;-70
2022/03/04 00:50:06;;;;;;;;;;;;;;;6.58;39.32;100810.09;4971909;28;7362;-70
2022/03/04 00:52:31;;;;;;;;;;;;;;;6.58;39.18;100810.09;4980027;28;7058;-70
2022/03/04 00:54:58;;;;;;;;;;;;;;;6.58;39.38;100810.09;4999979;28;7002;-70
2022/03/04 00:57:23;;;;;;;;;;;;;;;6.57;39.68;100813.38;4988834;28;7199;-70
2022/03/04 00:59:49;;;;;;;;;;;;;;;6.53;39.61;100803.00;4993556;28;6785;-70
2022/03/04 01:02:15;;;;;;;;;;;;;;;6.51;39.55;100809.66;4973017;28;7331;-70
2022/03/04 01:04:40;;;;;;;;;;;;;;;6.48;39.42;100814.53;4980657;28;6963;-71
2022/03/04 01:07:07;;;;;;;;;;;;;;;6.44;39.84;100812.53;4997992;28;6764;-70
2022/03/04 01:09:33;;;;;;;;;;;;;;;6.42;39.48;100811.53;4991616;28;7169;-70
2022/03/04 01:11:58;;;;;;;;;;;;;;;6.37;40.04;100818.84;4997996;28;6792;-70
2022/03/04 01:14:24;;;;;;;;;;;;;;;6.32;39.71;100817.63;4977435;28;7285;-71
2022/03/04 01:16:50;;;;;;;;;;;;;;;6.26;39.85;100827.38;4984377;28;6962;-71
2022/03/04 01:19:15;;;;;;;;;;;;;;;6.17;39.73;100827.59;4976616;28;7403;-70
2022/03/04 01:21:41;;;;;;;;;;;;;;;6.07;39.81;100831.13;4995348;28;6772;-70
2022/03/04 01:24:08;;;;;;;;;;;;;;;5.97;40.13;100821.91;4981539;28;6772;-70
2022/03/04 01:26:33;;;;;;;;;;;;;;;5.86;40.28;100820.22;4980606;28;6812;-70
2022/03/04 01:28:59;;;;;;;;;;;;;;;5.76;40.47;100818.69;4962647;28;6772;-70
2022/03/04 01:31:25;;;;;;;;;;;;;;;5.68;40.86;100820.63;4977522;28;6861;-70
2022/03/04 01:33:51;;;;;;;;;;;;;;;5.61;40.64;100822.59;4966770;28;6845;-70
2022/03/04 01:36:17;;;;;;;;;;;;;;;5.52;40.99;100812.66;4984352;28;6966;-70
2022/03/04 01:38:43;;;;;;;;;;;;;;;5.44;41.39;100818.81;4968608;28;6975;-71
2022/03/04 01:41:08;;;;;;;;;;;;;;;5.35;40.67;100816.44;4979366;28;6824;-70
2022/03/04 01:43:35;;;;;;;;;;;;;;;5.23;40.91;100813.88;4977433;28;7723;-70
2022/03/04 01:46:15;;;;;;;;;;;;;;;5.09;41.44;100805.19;5000959;28;7343;-70
2022/03/04 01:48:42;;;;;;;;;;;;;;;4.97;42.21;100805.13;4988220;28;7206;-70
2022/03/04 01:51:10;;;;;;;;;;;;;;;4.86;41.23;100809.38;4982198;28;7037;-70
2022/03/04 01:53:36;;;;;;;;;;;;;;;4.76;41.65;100812.88;4998430;28;7071;-70
2022/03/04 01:56:02;;;;;;;;;;;;;;;4.68;41.90;100816.47;4982907;28;6814;-71
2022/03/04 01:58:28;;;;;;;;;;;;;;;4.62;41.63;100821.03;4997480;28;6981;-70
2022/03/04 02:00:54;;;;;;;;;;;;;;;4.54;41.92;100818.81;4993435;28;7637;-70
2022/03/04 02:03:19;;;;;;;;;;;;;;;4.48;42.80;100818.31;5005246;28;7017;-70
2022/03/04 02:05:45;;;;;;;;;;;;;;;4.44;42.67;100826.44;5000460;28;6796;-71
2022/03/04 02:08:11;;;;;;;;;;;;;;;4.37;42.86;100816.59;4970280;28;7222;-71
2022/03/04 02:10:37;;;;;;;;;;;;;;;4.31;42.46;100819.53;4995170;28;7014;-70
2022/03/04 02:13:03;;;;;;;;;;;;;;;4.26;42.20;100823.31;5002601;28;7350;-70
2022/03/04 02:15:29;;;;;;;;;;;;;;;4.19;43.22;100813.44;4978349;28;7200;-70
2022/03/04 02:17:55;;;;;;;;;;;;;;;4.14;43.41;100815.59;4992767;28;6815;-70
2022/03/04 02:20:22;;;;;;;;;;;;;;;4.11;43.03;100816.28;4977919;28;7785;-70
2022/03/04 02:22:50;;;;;;;;;;;;;;;4.10;43.33;100818.69;4974056;28;7020;-70
2022/03/04 02:25:16;;;;;;;;;;;;;;;4.07;43.37;100823.50;4979921;28;7359;-70
2022/03/04 02:27:42;;;;;;;;;;;;;;;4.07;43.06;100821.84;4973646;28;6889;-70
2022/03/04 02:30:08;;;;;;;;;;;;;;;4.09;43.86;100819.44;4993747;28;7352;-70
2022/03/04 02:32:34;;;;;;;;;;;;;;;4.11;43.30;100816.28;4982717;28;6824;-70
2022/03/04 02:35:01;;;;;;;;;;;;;;;4.17;44.17;100819.28;4982061;28;6776;-70
2022/03/04 02:37:27;;;;;;;;;;;;;;;4.25;43.60;100819.91;4970802;28;6903;-70
2022/03/04 02:39:53;;;;;;;;;;;;;;;4.31;43.13;100815.31;4997583;28;6956;-70
2022/03/04 02:42:19;;;;;;;;;;;;;;;4.39;43.96;100809.97;4995851;28;6768;-70
2022/03/04 02:44:44;;;;;;;;;;;;;;;4.44;43.94;100804.50;5000239;28;6816;-70
2022/03/04 02:47:10;;;;;;;;;;;;;;;4.48;43.80;100803.09;4998619;28;7035;-70
2022/03/04 02:49:36;;;;;;;;;;;;;;;4.54;43.53;100802.69;4997716;28;6804;-70
2022/03/04 02:52:01;;;;;;;;;;;;;;;4.59;42.79;100799.72;4973059;28;7040;-70
2022/03/04 02:54:27;;;;;;;;;;;;;;;4.63;43.50;100802.50;4987210;28;6884;-70
2022/03/04 02:56:53;;;;;;;;;;;;;;;4.69;43.53;100795.38;5006499;28;7060;-70
2022/03/04 02:59:18;;;;;;;;;;;;;;;4.76;43.45;100804.34;4997147;28;6796;-70
2022/03/04 03:01:44;;;;;;;;;;;;;;;4.81;42.97;100798.00;5006360;28;6787;-70
2022/03/04 03:04:10;;;;;;;;;;;;;;;4.86;43.25;100802.66;4975012;28;6879;-70
2022/03/04 03:06:35;;;;;;;;;;;;;;;4.93;43.40;100801.47;5002440;28;6898;-70
2022/03/04 03:09:02;;;;;;;;;;;;;;;4.97;43.49;100795.88;5000676;28;6803;-70
2022/03/04 03:11:28;;;;;;;;;;;;;;;5.06;43.51;100802.41;5008949;28;6819;-70
2022/03/04 03:13:54;;;;;;;;;;;;;;;5.11;42.41;100804.53;4960009;28;6869;-70
2022/03/04 03:16:21;;;;;;;;;;;;;;;5.16;42.55;100804.00;4970829;28;6871;-70
2022/03/04 03:18:46;;;;;;;;;;;;;;;5.17;42.75;100806.69;4972147;28;7218;-70
2022/03/04 03:21:12;;;;;;;;;;;;;;;5.17;42.41;100810.84;4983250;28;7162;-70
2022/03/04 03:23:38;;;;;;;;;;;;;;;5.13;43.26;100813.19;4976692;28;7153;-70
2022/03/04 03:26:03;;;;;;;;;;;;;;;5.08;43.08;100808.50;4972796;28;6962;-70
2022/03/04 03:28:29;;;;;;;;;;;;;;;5.02;42.82;100810.56;4996365;28;7893;-70
2022/03/04 03:30:55;;;;;;;;;;;;;;;4.94;42.60;100810.00;4979223;28;6795;-70
2022/03/04 03:33:20;;;;;;;;;;;;;;;4.86;43.34;100809.38;4994010;28;7600;-70
2022/03/04 03:35:46;;;;;;;;;;;;;;;4.79;43.54;100810.56;4995610;28;6776;-70
2022/03/04 03:38:12;;;;;;;;;;;;;;;4.73;43.66;100810.06;4974670;28;7105;-70
2022/03/04 03:40:38;;;;;;;;;;;;;;;4.67;43.41;100817.22;4971934;28;7385;-70
2022/03/04 03:43:03;;;;;;;;;;;;;;;4.65;43.29;100816.22;4981987;28;7358;-70
2022/03/04 03:45:29;;;;;;;;;;;;;;;4.62;43.13;100815.97;4993620;28;6792;-70
2022/03/04 03:47:54;;;;;;;;;;;;;;;4.60;43.48;100826.03;4994466;28;7014;-70
2022/03/04 03:50:21;;;;;;;;;;;;;;;4.60;43.50;100826.03;4972473;28;6799;-70
2022/03/04 03:52:46;;;;;;;;;;;;;;;4.61;44.15;100819.28;4991894;28;7908;-70
2022/03/04 03:55:12;;;;;;;;;;;;;;;4.64;43.60;100822.94;4972804;28;6947;-70
2022/03/04 03:57:38;;;;;;;;;;;;;;;4.66;43.73;100823.94;4959410;28;6923;-70
2022/03/04 04:00:06;;;;;;;;;;;;;;;4.70;42.86;100830.16;4994282;28;6792;-70
2022/03/04 04:02:32;;;;;;;;;;;;;;;4.72;43.78;100833.69;4968721;28;6832;-70
2022/03/04 04:04:58;;;;;;;;;;;;;;;4.75;43.84;100831.41;4992981;28;8161;-70
2022/03/04 04:07:23;;;;;;;;;;;;;;;4.78;43.91;100833.28;4988677;28;6795;-70
2022/03/04 04:09:49;;;;;;;;;;;;;;;4.79;43.02;100830.88;4986395;28;6772;-70
2022/03/04 04:12:15;;;;;;;;;;;;;;;4.81;43.73;100824.25;4986935;28;6930;-70
2022/03/04 04:14:41;;;;;;;;;;;;;;;4.85;43.27;100831.38;4989953;28;6874;-70
2022/03/04 04:17:06;;;;;;;;;;;;;;;4.88;43.18;100832.38;4965289;28;7487;-70
2022/03/04 04:19:32;;;;;;;;;;;;;;;4.90;42.62;100823.19;4987848;28;6775;-70
2022/03/04 04:21:58;;;;;;;;;;;;;;;4.91;42.74;100830.97;4984902;28;7178;-70
2022/03/04 04:24:24;;;;;;;;;;;;;;;4.92;43.63;100830.19;4982910;28;6793;-70
2022/03/04 04:26:50;;;;;;;;;;;;;;;4.92;42.81;100826.75;4989531;28;6979;-70
2022/03/04 04:29:16;;;;;;;;;;;;;;;4.92;42.60;100835.25;4948299;28;6949;-70
2022/03/04 04:31:41;;;;;;;;;;;;;;;4.92;43.07;100831.81;4982257;28;6946;-70
2022/03/04 04:34:08;;;;;;;;;;;;;;;4.91;43.49;100836.03;4970042;28;6875;-70
2022/03/04 04:36:33;;;;;;;;;;;;;;;4.88;43.16;100837.44;4988011;28;7852;-70
2022/03/04 04:38:59;;;;;;;;;;;;;;;4.82;42.88;100841.25;4988625;28;6911;-70
2022/03/04 04:41:25;;;;;;;;;;;;;;;4.77;43.27;100849.28;4955890;28;6788;-72
2022/03/04 04:43:51;;;;;;;;;;;;;;;4.69;43.16;100848.69;4986556;28;6999;-70
2022/03/04 04:46:17;;;;;;;;;;;;;;;4.64;43.27;100850.88;4970621;28;6780;-70
2022/03/04 04:48:43;;;;;;;;;;;;;;;4.59;43.02;100854.72;4991685;28;9652;-70
2022/03/04 04:51:09;;;;;;;;;;;;;;;4.56;43.58;100852.81;4969619;28;7088;-70
2022/03/04 04:53:35;;;;;;;;;;;;;;;4.53;43.07;100850.00;4993092;28;7086;-70
2022/03/04 04:56:02;;;;;;;;;;;;;;;4.50;43.53;100854.84;4968489;28;6833;-70
2022/03/04 04:58:28;;;;;;;;;;;;;;;4.49;43.80;100854.72;4957792;28;6808;-70
2022/03/04 05:00:54;;;;;;;;;;;;;;;4.43;43.37;100862.75;4972811;28;7009;-70
2022/03/04 05:03:24;;;;;;;;;;;;;;;4.39;43.52;100861.59;4990736;28;6928;-70
2022/03/04 05:05:52;;;;;;;;;;;;;;;4.36;43.90;100857.97;4970837;28;6801;-70
2022/03/04 05:08:18;;;;;;;;;;;;;;;4.32;44.27;100854.28;4975352;28;7280;-70
2022/03/04 05:10:45;;;;;;;;;;;;;;;4.28;43.98;100854.78;4993231;28;7131;-70
2022/03/04 05:13:11;;;;;;;;;;;;;;;4.23;43.90;100854.41;4977077;28;6804;-70
2022/03/04 05:15:38;;;;;;;;;;;;;;;4.20;43.69;100856.72;4971684;28;6967;-70
2022/03/04 05:18:04;;;;;;;;;;;;;;;4.16;43.81;100862.31;4993240;28;6816;-70
2022/03/04 05:20:30;;;;;;;;;;;;;;;4.14;43.72;100863.81;4993566;28;6785;-70
2022/03/04 05:22:56;;;;;;;;;;;;;;;4.10;44.13;100864.34;4993031;28;7273;-70
2022/03/04 05:25:21;;;;;;;;;;;;;;;4.06;43.78;100867.41;4990371;28;6779;-70
2022/03/04 05:27:47;;;;;;;;;;;;;;;4.01;43.65;100867.91;4982991;28;7706;-70
2022/03/04 05:30:14;;;;;;;;;;;;;;;3.97;44.86;100870.97;4971642;28;7361;-70
2022/03/04 05:32:39;;;;;;;;;;;;;;;3.92;43.99;100868.81;4993326;28;7048;-70
2022/03/04 05:35:06;;;;;;;;;;;;;;;3.88;43.75;100872.75;4991613;28;6779;-70
2022/03/04 05:37:32;;;;;;;;;;;;;;;3.82;44.79;100870.59;4990676;28;7264;-70
2022/03/04 05:39:58;;;;;;;;;;;;;;;3.78;44.56;100871.06;4956378;28;6800;-70
2022/03/04 05:42:25;;;;;;;;;;;;;;;3.75;44.38;100879.31;4971000;28;7836;-70
2022/03/04 05:44:50;;;;;;;;;;;;;;;3.72;44.28;100871.47;4976798;28;7289;-70
2022/03/04 05:47:16;;;;;;;;;;;;;;;3.71;44.13;100878.91;4972116;28;8004;-70
2022/03/04 05:49:42;;;;;;;;;;;;;;;3.72;45.09;100881.59;4960064;28;8091;-70
2022/03/04 05:52:08;;;;;;;;;;;;;;;3.72;45.17;100884.13;4977005;28;7614;-70
2022/03/04 05:54:34;;;;;;;;;;;;;;;3.71;44.33;100889.97;4975783;28;7159;-70
2022/03/04 05:56:59;;;;;;;;;;;;;;;3.70;44.28;100889.81;4973577;28;7860;-70
2022/03/04 05:59:25;;;;;;;;;;;;;;;3.68;45.36;100894.78;4990083;28;6784;-70
2022/03/04 06:01:51;;;;;;;;;;;;;;;3.66;44.89;100892.88;4967709;28;6791;-70
2022/03/04 06:04:17;;;;;;;;;;;;;;;3.65;44.49;100891.09;4989195;28;7248;-70
2022/03/04 06:06:43;;;;;;;;;;;;;;;3.62;45.50;100891.72;4991224;28;6995;-70
2022/03/04 06:09:10;;;;;;;;;;;;;;;3.60;45.00;100885.66;4992593;28;6999;-70
2022/03/04 06:11:36;;;;;;;;;;;;;;;3.61;45.08;100897.56;4970028;28;6864;-70
2022/03/04 06:14:02;;;;;;;;;;;;;;;3.61;44.67;100892.50;4967987;28;6804;-70
2022/03/04 06:16:28;;;;;;;;;;;;;;;3.61;45.19;100895.03;4969176;28;6946;-70
2022/03/04 06:18:54;;;;;;;;;;;;;;;3.63;45.10;100897.72;4962393;28;6812;-70
2022/03/04 06:21:20;;;;;;;;;;;;;;;3.64;44.69;100895.28;4989362;28;6900;-70
2022/03/04 06:23:46;;;;;;;;;;;;;;;3.67;45.39;100903.16;4973455;28;7116;-70
2022/03/04 06:26:13;;;;;;;;;;;;;;;3.72;45.49;100911.16;4989943;28;6928;-70
2022/03/04 06:28:40;;;;;;;;;;;;;;;3.76;44.95;100910.63;4972847;28;7347;-70
2022/03/04 06:31:06;;;;;;;;;;;;;;;3.81;46.07;100911.03;4990063;28;7002;-70
2022/03/04 06:33:33;;;;;;;;;;;;;;;3.88;46.09;100918.38;4975551;28;6901;-70
2022/03/04 06:36:12;;;;;;;;;;;;;;;3.92;44.62;100910.25;4992383;28;6891;-70
2022/03/04 06:38:41;;;;;;;;;;;;;;;3.95;45.55;100913.03;4967315;28;7259;-70
2022/03/04 06:41:09;;;;;;;;;;;;;;;4.00;45.24;100911.78;4981625;28;6899;-70
2022/03/04 06:43:35;;;;;;;;;;;;;;;4.05;45.39;100921.41;4949030;28;7147;-70
2022/03/04 06:46:04;;;;;;;;;;;;;;;4.09;44.59;100918.38;4991980;28;6999;-70
2022/03/04 06:48:30;;;;;;;;;;;;;;;4.12;44.50;100921.16;4990277;28;7342;-70
2022/03/04 06:50:57;;;;;;;;;;;;;;;4.15;45.51;100917.22;4989847;28;6808;-70
2022/03/04 06:53:23;;;;;;;;;;;;;;;4.20;44.86;100919.25;4988444;28;6902;-70
2022/03/04 06:55:49;;;;;;;;;;;;;;;4.24;45.81;100914.53;4987424;28;6808;-71
2022/03/04 06:58:15;;;;;;;;;;;;;;;4.31;45.19;100916.81;4964024;28;6791;-70
2022/03/04 07:00:41;;;;;;;;;;;;;;;4.38;44.86;100917.34;4971058;28;9904;-70
2022/03/04 07:03:08;;;;;;;;;;;;;;;4.44;45.46;100928.88;4972715;28;7137;-70
2022/03/04 07:05:35;;;;;;;;;;;;;;;4.49;45.50;100926.69;4976378;28;7306;-70
2022/03/04 07:08:01;;;;;;;;;;;;;;;4.55;44.48;100937.38;4975856;28;7445;-73
2022/03/04 07:10:26;;;;;;;;;;;;;;;4.58;44.52;100937.59;4974229;28;7250;-70
2022/03/04 07:12:52;;;;;;;;;;;;;;;4.61;44.98;100947.13;4969657;28;6820;-70
2022/03/04 07:15:19;;;;;;;;;;;;;;;4.62;44.64;100948.00;4999998;28;7125;-70
2022/03/04 07:17:46;;;;;;;;;;;;;;;4.63;44.81;100945.59;4979859;28;6929;-70
2022/03/04 07:20:13;;;;;;;;;;;;;;;4.66;44.94;100950.91;4974588;28;6797;-70
2022/03/04 07:22:39;;;;;;;;;;;;;;;4.71;44.64;100944.56;4959966;28;7864;-70
2022/03/04 07:25:08;;;;;;;;;;;;;;;4.77;44.99;100951.78;4991702;28;6886;-71
2022/03/04 07:27:34;;;;;;;;;;;;;;;4.84;45.10;100954.06;4991577;28;7422;-71
2022/03/04 07:30:01;;;;;;;;;;;;;;;4.92;44.94;100952.13;4967668;28;7542;-70
2022/03/04 07:32:27;;;;;;;;;;;;;;;4.99;44.57;100959.47;4969444;28;6820;-70
2022/03/04 07:34:52;;;;;;;;;;;;;;;5.07;45.12;100960.06;4993700;28;7720;-70
2022/03/04 07:37:18;;;;;;;;;;;;;;;5.14;45.25;100956.34;4972887;28;6929;-70
2022/03/04 07:39:44;;;;;;;;;;;;;;;5.22;45.10;100954.44;4974025;28;6787;-70
2022/03/04 07:42:09;;;;;;;;;;;;;;;5.30;44.62;100957.56;4987166;28;7058;-70
2022/03/04 07:44:35;;;;;;;;;;;;;;;5.38;45.00;100956.50;4976769;28;6900;-70
2022/03/04 07:47:01;;;;;;;;;;;;;;;5.46;44.60;100949.47;4973701;28;6792;-70
2022/03/04 07:49:26;;;;;;;;;;;;;;;5.55;44.39;100960.34;4972076;28;7340;-70
2022/03/04 07:51:52;;;;;;;;;;;;;;;5.62;44.79;100961.72;4971670;28;6799;-71
2022/03/04 07:54:18;;;;;;;;;;;;;;;5.70;44.54;100960.66;4971461;28;6856;-71
2022/03/04 07:56:44;;;;;;;;;;;;;;;5.76;44.46;100955.13;4959918;28;7382;-71
2022/03/04 07:59:10;;;;;;;;;;;;;;;5.84;44.46;100957.50;4971732;28;7019;-71
2022/03/04 08:01:35;;;;;;;;;;;;;;;5.91;44.14;100956.31;4993224;28;7029;-71
2022/03/04 08:04:01;;;;;;;;;;;;;;;5.98;43.52;100963.63;4971529;28;6955;-71
2022/03/04 08:06:27;;;;;;;;;;;;;;;6.02;44.20;100959.69;4969801;28;7186;-71
2022/03/04 08:08:52;;;;;;;;;;;;;;;6.10;44.15;100962.81;4968913;28;6955;-71
2022/03/04 08:11:18;;;;;;;;;;;;;;;6.16;43.86;100959.84;4969731;28;6879;-71
2022/03/04 08:13:44;;;;;;;;;;;;;;;6.21;43.90;100964.50;4973938;28;7394;-71
2022/03/04 08:16:10;;;;;;;;;;;;;;;6.29;43.71;100959.97;4968123;28;7418;-72
2022/03/04 08:18:35;;;;;;;;;;;;;;;6.37;43.98;100963.97;4985561;28;6868;-71
2022/03/04 08:21:01;;;;;;;;;;;;;;;6.47;43.76;100969.75;4980467;28;6871;-71
2022/03/04 08:23:27;;;;;;;;;;;;;;;6.56;43.60;100972.06;4969301;28;6954;-71
2022/03/04 08:25:53;;;;;;;;;;;;;;;6.62;43.54;100970.91;4986431;28;7287;-71
2022/03/04 08:28:18;;;;;;;;;;;;;;;6.71;43.35;100980.84;4968604;28;7372;-71
2022/03/04 08:30:44;;;;;;;;;;;;;;;6.80;43.49;100972.97;4973697;28;6847;-71
2022/03/04 08:33:10;;;;;;;;;;;;;;;6.88;43.28;100976.09;4952397;28;6910;-71
2022/03/04 08:35:36;;;;;;;;;;;;;;;6.96;43.10;100980.09;4970725;28;7848;-71
2022/03/04 08:38:02;;;;;;;;;;;;;;;7.03;42.83;100984.84;4992688;28;7431;-71
2022/03/04 08:40:28;;;;;;;;;;;;;;;7.11;43.17;100985.41;4973712;28;6902;-71
2022/03/04 08:42:55;;;;;;;;;;;;;;;7.21;42.90;100990.38;4956131;28;7198;-71
2022/03/04 08:45:20;;;;;;;;;;;;;;;7.30;42.60;100990.13;4958084;28;8415;-71
2022/03/04 08:47:46;;;;;;;;;;;;;;;7.39;42.39;100989.00;4973604;28;6792;-71
2022/03/04 08:50:16;;;;;;;;;;;;;;;7.48;42.14;100995.66;4972936;28;7284;-71
2022/03/04 08:52:42;;;;;;;;;;;;;;;7.56;42.82;100997.84;4976249;28;7176;-71
2022/03/04 08:55:14;;;;;;;;;;;;;;;7.65;42.63;100998.47;4966275;28;6985;-71
2022/03/04 08:57:44;;;;;;;;;;;;;;;7.74;42.56;101003.34;4980052;28;7051;-71
2022/03/04 09:00:11;;;;;;;;;;;;;;;7.81;42.49;101000.41;4992541;28;6812;-71
2022/03/04 09:02:37;;;;;;;;;;;;;;;7.89;42.01;100999.28;4950010;28;6871;-71
2022/03/04 09:05:03;;;;;;;;;;;;;;;7.96;41.79;101008.22;4970215;28;6871;-71
2022/03/04 09:07:29;;;;;;;;;;;;;;;8.04;42.35;101003.69;4978093;28;7209;-71
2022/03/04 09:09:54;;;;;;;;;;;;;;;8.11;41.80;101000.75;4973946;28;7174;-71
2022/03/04 09:12:20;;;;;;;;;;;;;;;8.17;41.15;100990.94;4974062;28;6874;-71
2022/03/04 09:14:46;;;;;;;;;;;;;;;8.25;40.94;101000.78;4978676;28;6966;-71
2022/03/04 09:17:12;;;;;;;;;;;;;;;8.32;41.82;101001.28;4977540;28;7276;-71
2022/03/04 09:19:37;;;;;;;;;;;;;;;8.40;40.83;100993.25;4973370;28;7119;-71
2022/03/04 09:22:03;;;;;;;;;;;;;;;8.47;40.17;101001.44;4995665;28;7140;-71
2022/03/04 09:24:29;;;;;;;;;;;;;;;8.56;40.41;101011.41;4992554;28;7118;-71
2022/03/04 09:26:55;;;;;;;;;;;;;;;8.64;40.46;100999.13;4978530;28;7052;-71
2022/03/04 09:29:21;;;;;;;;;;;;;;;8.70;40.08;100997.00;4976574;28;6882;-71
2022/03/04 09:31:47;;;;;;;;;;;;;;;8.78;39.95;101002.59;4993818;28;7072;-71
2022/03/04 09:34:14;;;;;;;;;;;;;;;8.86;40.96;101000.53;4993460;28;7181;-71
2022/03/04 09:36:39;;;;;;;;;;;;;;;8.95;40.50;100996.00;4976560;28;6848;-71
2022/03/04 09:39:05;;;;;;;;;;;;;;;9.05;39.72;100994.03;4974229;28;7059;-71
2022/03/04 09:41:31;;;;;;;;;;;;;;;9.13;39.42;100996.31;4994823;28;6806;-71
2022/03/04 09:43:57;;;;;;;;;;;;;;;9.21;40.17;100998.44;4961879;28;6981;-71
2022/03/04 09:46:24;;;;;;;;;;;;;;;9.27;39.29;100998.84;4987015;28;6862;-71
2022/03/04 09:48:52;;;;;;;;;;;;;;;9.34;39.53;100995.88;4977343;28;6792;-71
2022/03/04 09:51:20;;;;;;;;;;;;;;;9.42;39.60;100998.91;4989806;28;7032;-71
2022/03/04 09:53:46;;;;;;;;;;;;;;;9.49;39.91;100997.63;4975256;28;6908;-71
2022/03/04 09:56:13;;;;;;;;;;;;;;;9.56;39.21;101002.31;4988384;28;6982;-71
2022/03/04 09:58:39;;;;;;;;;;;;;;;9.62;39.01;100994.13;4996963;28;6804;-71
2022/03/04 10:01:13;;;;;;;;;;;;;;;9.69;39.81;100999.72;4996361;28;6800;-71
2022/03/04 10:03:49;;;;;;;;;;;;;;;9.77;38.96;100992.53;4978038;28;7217;-71
2022/03/04 10:06:17;;;;;;;;;;;;;;;9.86;38.60;100994.75;4993763;28;6824;-71
2022/03/04 10:08:46;;;;;;;;;;;;;;;9.95;39.20;100997.00;4971939;28;7099;-71
2022/03/04 10:11:25;;;;;;;;;;;;;;;10.03;38.62;100998.31;4995333;28;6812;-71
2022/03/04 10:13:55;;;;;;;;;;;;;;;10.10;38.84;100995.34;4988090;28;7900;-71
2022/03/04 10:16:29;;;;;;;;;;;;;;;10.21;39.28;101000.19;4988883;28;6811;-71
2022/03/04 10:19:15;;;;;;;;;;;;;;;10.28;38.94;100997.22;5001021;28;7316;-71
2022/03/04 10:21:59;;;;;;;;;;;;;;;10.37;38.68;100992.63;4991096;28;6860;-71
2022/03/04 10:24:39;;;;;;;;;;;;;;;10.48;38.67;100985.63;4981170;28;7194;-71
2022/03/04 10:27:08;;;;;;;;;;;;;;;10.66;38.29;100996.03;4973341;28;7209;-71
2022/03/04 10:29:37;;;;;;;;;;;;;;;11.27;38.56;100983.09;4978411;28;6840;-71
2022/03/04 10:32:13;;;;;;;;;;;;;;;12.58;37.44;100981.28;4990353;28;7267;-72
2022/03/04 10:34:49;;;;;;;;;;;;;;;14.16;35.72;100974.72;4971740;28;7317;-72
2022/03/04 10:37:22;;;;;;;;;;;;;;;15.60;34.13;100959.69;4987581;28;7733;-71
2022/03/04 10:40:03;;;;;;;;;;;;;;;16.87;33.45;100955.28;4977553;28;7336;-72
2022/03/04 10:43:12;;;;;;;;;;;;;;;18.01;32.42;100954.22;4990618;28;6823;-71
2022/03/04 10:45:45;;;;;;;;;;;;;;;19.19;31.10;100954.44;4969306;28;6843;-71
2022/03/04 10:48:14;;;;;;;;;;;;;;;19.87;30.20;100941.91;4988439;28;6908;-71
2022/03/04 10:50:47;;;;;;;;;;;;;;;20.52;29.23;100934.34;4966113;28;7023;-71
2022/03/04 10:53:27;;;;;;;;;;;;;;;21.07;27.81;100933.41;4973698;28;7185;-71
2022/03/04 10:55:55;;;;;;;;;;;;;;;21.38;27.58;100936.41;4986602;28;6892;-71
2022/03/04 10:58:29;;;;;;;;;;;;;;;21.68;26.86;100929.81;4986946;28;10070;-71
2022/03/04 11:01:18;;;;;;;;;;;;;;;21.95;26.90;100938.78;4966446;28;7188;-71
2022/03/04 11:03:44;;;;;;;;;;;;;;;22.30;26.22;100929.50;4977619;28;7294;-72
2022/03/04 11:06:15;;;;;;;;;;;;;;;22.47;25.74;100937.44;4990478;28;6985;-72
2022/03/04 11:08:42;;;;;;;;;;;;;;;22.65;25.74;100934.13;4989591;28;6824;-72
2022/03/04 11:11:09;;;;;;;;;;;;;;;22.87;25.56;100936.88;4961367;28;7641;-72
2022/03/04 11:13:35;;;;;;;;;;;;;;;23.12;25.77;100931.75;4960677;28;6821;-72
2022/03/04 11:16:05;;;;;;;;;;;;;;;23.36;24.96;100927.53;4971619;28;7253;-72
2022/03/04 11:18:33;;;;;;;;;;;;;;;23.49;24.88;100923.22;4976336;28;7230;-72
2022/03/04 11:21:00;;;;;;;;;;;;;;;23.68;24.96;100921.50;4973353;28;7060;-72
2022/03/04 11:23:32;;;;;;;;;;;;;;;23.89;24.53;100915.44;4983507;28;6792;-72
2022/03/04 11:26:18;;;;;;;;;;;;;;;24.22;24.04;100905.84;4974620;28;6832;-72
2022/03/04 11:28:52;;;;;;;;;;;;;;;24.43;23.96;100909.31;4975920;28;7787;-71
2022/03/04 11:31:25;;;;;;;;;;;;;;;24.56;24.32;100907.56;4970736;28;7345;-71
2022/03/04 11:34:02;;;;;;;;;;;;;;;24.68;23.63;100904.03;4970097;28;7165;-71
2022/03/04 11:36:35;;;;;;;;;;;;;;;24.77;23.33;100903.13;4966103;28;6816;-72
2022/03/04 11:39:10;;;;;;;;;;;;;;;24.88;23.26;100896.16;4989161;28;6895;-72
2022/03/04 11:41:45;;;;;;;;;;;;;;;25.00;22.71;100892.59;4972419;28;7303;-72
2022/03/04 11:44:22;;;;;;;;;;;;;;;24.98;22.50;100904.84;4969206;28;6828;-72
2022/03/04 11:47:00;;;;;;;;;;;;;;;24.95;22.69;100899.63;4973239;28;7634;-72
2022/03/04 11:49:30;;;;;;;;;;;;;;;25.07;22.92;100899.56;4988961;28;6816;-72
2022/03/04 11:52:07;;;;;;;;;;;;;;;25.26;22.64;100899.47;4987231;28;7232;-72
2022/03/04 11:54:50;;;;;;;;;;;;;;;25.34;22.45;100899.44;4991967;28;7405;-72
2022/03/04 11:57:37;;;;;;;;;;;;;;;25.44;22.42;100897.63;4993507;28;7133;-72
2022/03/04 12:00:12;;;;;;;;;;;;;;;25.52;21.75;100893.25;4959139;28;7055;-72
2022/03/04 12:02:46;;;;;;;;;;;;;;;25.51;21.71;100888.88;4967548;28;6919;-72
2022/03/04 12:05:14;;;;;;;;;;;;;;;25.31;20.61;100884.59;4985933;28;7050;-72
2022/03/04 12:07:42;;;;;;;;;;;;;;;25.07;21.08;100883.84;4987295;28;6796;-72
2022/03/04 12:10:17;;;;;;;;;;;;;;;24.98;20.74;100886.50;4954660;28;7904;-72
2022/03/04 12:13:04;;;;;;;;;;;;;;;24.94;20.76;100882.16;4988992;28;6807;-72
2022/03/04 12:15:31;;;;;;;;;;;;;;;25.06;21.19;100887.34;4991321;28;7296;-72
2022/03/04 12:18:04;;;;;;;;;;;;;;;25.32;21.03;100885.47;4988169;28;6875;-72
2022/03/04 12:20:39;;;;;;;;;;;;;;;25.61;21.01;100884.44;4987380;28;7046;-71
2022/03/04 12:23:15;;;;;;;;;;;;;;;25.65;20.90;100878.31;4984850;28;6964;-71
2022/03/04 12:25:56;;;;;;;;;;;;;;;25.61;21.13;100880.06;4972798;28;6859;-72
2022/03/04 12:28:36;;;;;;;;;;;;;;;25.59;21.03;100881.84;4988724;28;7897;-72
2022/03/04 12:31:02;;;;;;;;;;;;;;;25.69;20.71;100869.50;4969974;28;6967;-72
2022/03/04 12:33:31;;;;;;;;;;;;;;;25.58;20.78;100866.94;4970836;28;7212;-72
2022/03/04 12:35:58;;;;;;;;;;;;;;;24.72;20.95;100865.59;4988756;28;6884;-71
2022/03/04 12:38:25;;;;;;;;;;;;;;;23.25;21.62;100873.44;4988945;28;7251;-71
2022/03/04 12:40:51;;;;;;;;;;;;;;;21.77;22.78;100882.94;4975658;28;6804;-71
2022/03/04 12:43:17;;;;;;;;;;;;;;;20.45;23.11;100885.63;4975307;28;6899;-71
2022/03/04 12:45:42;;;;;;;;;;;;;;;19.33;23.78;100881.97;4989192;28;6783;-71
2022/03/04 12:48:09;;;;;;;;;;;;;;;18.45;24.38;100880.94;4974775;28;6800;-71
2022/03/04 12:50:35;;;;;;;;;;;;;;;17.75;25.49;100882.69;4970082;28;7813;-71
2022/03/04 12:53:22;;;;;;;;;;;;;;;17.18;26.16;100882.00;4986327;28;7272;-71
2022/03/04 12:55:49;;;;;;;;;;;;;;;16.79;26.52;100878.25;4991147;28;8169;-72
2022/03/04 12:58:15;;;;;;;;;;;;;;;16.51;26.75;100876.53;4957087;28;6804;-72